logo
Search for airport 
image banner adimage banner adimage banner ad
image banner ad

LG0019 - Zalogo Airfield

Located in , Greece

ICAO - , IATA -

Data provided by Airmate  

General information

Coordinates: N39°7'28" E20°41'46"
Elevation is 285 feet MSL.
 
View others Airports in Ioannina

Operational data

Special qualification required
Current time UTC:
Current local time:
Weather at : LGPZ - Preveza / Aktion ( 23 km )
METAR: LGPZ 191650Z 03009KT 6000 -RA FEW012 FEW018TCU SCT025 BKN070 11/10 Q1003
TAF: TAF LGPZ 191100Z 1912/2012 18010KT 9999 SCT020 BKN070 TEMPO 1917/1922 VRB05KT BECMG 1922/1924 30010KT PROB40 TEMPO 1912/1924 5000 RA FEW016TCU BKN020 BKN070 PROB40 TEMPO 1912/1921 3000 TSRA SCT010 FEW018CB BKN020 OVC070 BECMG 2001/2003 FEW020
View NOTAMs / SUP AIP / TFR affecting this airport [VIEW]
Communications frequencies: [VIEW]

Runways:

Airport contact information

Address: Greece

Satellite view of LG0019